HAL1001 PHTO-PHNL
Flight info
| Callsign | HAL1001 |
|---|---|
| Flight time | 0h 41m |
| Altitude | 28000 |
| Route | ITO V22 OKALA V16 LNY JULLE5 |
| Aircraft | MD82/M-SDFGIRWY/C |
Departure
| Time | 2026-04-22 19:32 |
|---|---|
| Airport | Hilo International Airport (PHTO) |
Arrival
| Time | 2026-04-22 20:13 |
|---|---|
| Airport | Daniel K. Inouye International Airport (PHNL) |
| Time | Latitude | Longitude | Altitude | Speed | Heading |
|---|---|---|---|---|---|
| 2026-04-22 19:11 | 19.71571 | -155.03976 | 42 ft | 0 kts | 185° |
| 2026-04-22 19:24 | 19.71572 | -155.03976 | 42 ft | 2 kts | 185° |
| 2026-04-22 19:24 | 19.71588 | -155.03975 | 41 ft | 2 kts | 183° |
| 2026-04-22 19:24 | 19.71605 | -155.03975 | 41 ft | 2 kts | 177° |
| 2026-04-22 19:24 | 19.71621 | -155.03977 | 41 ft | 2 kts | 167° |
| 2026-04-22 19:25 | 19.71636 | -155.03984 | 41 ft | 2 kts | 137° |
| 2026-04-22 19:25 | 19.71644 | -155.03998 | 40 ft | 2 kts | 101° |
| 2026-04-22 19:25 | 19.71645 | -155.04004 | 40 ft | 0 kts | 97° |
| 2026-04-22 19:26 | 19.71642 | -155.03960 | 42 ft | 14 kts | 90° |
| 2026-04-22 19:26 | 19.71643 | -155.03856 | 43 ft | 14 kts | 89° |
| 2026-04-22 19:27 | 19.71644 | -155.03752 | 43 ft | 14 kts | 89° |
| 2026-04-22 19:27 | 19.71687 | -155.03676 | 44 ft | 12 kts | 12° |
| 2026-04-22 19:27 | 19.71775 | -155.03674 | 41 ft | 13 kts | 1° |
| 2026-04-22 19:27 | 19.71864 | -155.03673 | 44 ft | 13 kts | 1° |
| 2026-04-22 19:28 | 19.71955 | -155.03672 | 45 ft | 13 kts | 1° |
| 2026-04-22 19:28 | 19.72009 | -155.03627 | 44 ft | 10 kts | 69° |
| 2026-04-22 19:28 | 19.72015 | -155.03556 | 46 ft | 10 kts | 89° |
| 2026-04-22 19:28 | 19.72014 | -155.03486 | 46 ft | 10 kts | 91° |
| 2026-04-22 19:29 | 19.72015 | -155.03396 | 46 ft | 17 kts | 90° |
| 2026-04-22 19:29 | 19.72015 | -155.03220 | 46 ft | 27 kts | 90° |
| 2026-04-22 19:29 | 19.72015 | -155.03072 | 47 ft | 18 kts | 90° |
| 2026-04-22 19:29 | 19.72025 | -155.02976 | 47 ft | 0 kts | 62° |
| 2026-04-22 19:30 | 19.72025 | -155.02974 | 47 ft | 1 kts | 62° |
| 2026-04-22 19:30 | 19.72028 | -155.02970 | 47 ft | 1 kts | 61° |
| 2026-04-22 19:30 | 19.72032 | -155.02962 | 46 ft | 2 kts | 61° |
| 2026-04-22 19:30 | 19.72063 | -155.02943 | 47 ft | 10 kts | 0° |
| 2026-04-22 19:31 | 19.72138 | -155.02979 | 47 ft | 19 kts | 301° |
| 2026-04-22 19:31 | 19.72146 | -155.03292 | 46 ft | 74 kts | 270° |
| 2026-04-22 19:31 | 19.72147 | -155.04068 | 44 ft | 134 kts | 270° |
| 2026-04-22 19:31 | 19.72144 | -155.05234 | 104 ft | 176 kts | 270° |
| 2026-04-22 19:32 | 19.72161 | -155.06562 | 826 ft | 177 kts | 272° |
| 2026-04-22 19:32 | 19.72432 | -155.07814 | 1692 ft | 177 kts | 304° |
| 2026-04-22 19:32 | 19.73437 | -155.08587 | 2189 ft | 188 kts | 351° |
| 2026-04-22 19:32 | 19.74709 | -155.08369 | 2872 ft | 184 kts | 25° |
| 2026-04-22 19:33 | 19.75836 | -155.07802 | 3752 ft | 177 kts | 27° |
| 2026-04-22 19:33 | 19.76967 | -155.07167 | 4227 ft | 192 kts | 28° |
| 2026-04-22 19:33 | 19.78169 | -155.06487 | 4917 ft | 194 kts | 27° |
| 2026-04-22 19:33 | 19.79328 | -155.05826 | 5677 ft | 193 kts | 28° |
| 2026-04-22 19:34 | 19.80552 | -155.05106 | 6119 ft | 209 kts | 29° |
| 2026-04-22 19:34 | 19.81867 | -155.04402 | 6627 ft | 215 kts | 17° |
| 2026-04-22 19:34 | 19.83362 | -155.04184 | 7082 ft | 221 kts | 354° |
| 2026-04-22 19:34 | 19.84891 | -155.04539 | 7488 ft | 231 kts | 344° |
| 2026-04-22 19:35 | 19.86461 | -155.04992 | 8037 ft | 233 kts | 343° |
| 2026-04-22 19:35 | 19.87934 | -155.05735 | 8529 ft | 242 kts | 321° |
| 2026-04-22 19:35 | 19.88764 | -155.06559 | 8773 ft | 251 kts | 310° |
| 2026-04-22 19:35 | 19.90245 | -155.08525 | 9565 ft | 256 kts | 306° |
| 2026-04-22 19:36 | 19.91288 | -155.10068 | 10183 ft | 260 kts | 304° |
| 2026-04-22 19:36 | 19.92544 | -155.11548 | 10259 ft | 280 kts | 316° |
| 2026-04-22 19:36 | 19.93403 | -155.12572 | 10582 ft | 277 kts | 303° |
| 2026-04-22 19:36 | 19.94379 | -155.14320 | 11262 ft | 273 kts | 299° |
| 2026-04-22 19:37 | 19.95308 | -155.16085 | 11722 ft | 278 kts | 301° |
| 2026-04-22 19:37 | 19.96707 | -155.18492 | 11984 ft | 299 kts | 303° |
| 2026-04-22 19:37 | 19.97910 | -155.20383 | 12097 ft | 318 kts | 305° |
| 2026-04-22 19:37 | 19.99230 | -155.22350 | 12222 ft | 335 kts | 307° |
| 2026-04-22 19:38 | 20.00164 | -155.23694 | 12316 ft | 346 kts | 307° |
| 2026-04-22 19:38 | 20.01659 | -155.25803 | 12591 ft | 357 kts | 306° |
| 2026-04-22 19:38 | 20.02796 | -155.28124 | 13101 ft | 362 kts | 291° |
| 2026-04-22 19:38 | 20.03617 | -155.30702 | 13689 ft | 365 kts | 289° |
| 2026-04-22 19:39 | 20.04377 | -155.33261 | 14214 ft | 368 kts | 289° |
| 2026-04-22 19:39 | 20.05159 | -155.35896 | 14808 ft | 370 kts | 288° |
| 2026-04-22 19:39 | 20.05927 | -155.38486 | 15395 ft | 372 kts | 289° |
| 2026-04-22 19:39 | 20.06454 | -155.40263 | 15790 ft | 374 kts | 289° |
| 2026-04-22 19:40 | 20.07507 | -155.43764 | 16574 ft | 377 kts | 289° |
| 2026-04-22 19:40 | 20.08319 | -155.46428 | 17161 ft | 380 kts | 289° |
| 2026-04-22 19:40 | 20.09147 | -155.49117 | 17711 ft | 383 kts | 289° |
| 2026-04-22 19:40 | 20.09986 | -155.51819 | 18273 ft | 386 kts | 289° |
| 2026-04-22 19:41 | 20.10834 | -155.54541 | 18789 ft | 388 kts | 289° |
| 2026-04-22 19:41 | 20.11683 | -155.57271 | 19269 ft | 390 kts | 289° |
| 2026-04-22 19:41 | 20.12526 | -155.59985 | 19723 ft | 392 kts | 289° |
| 2026-04-22 19:41 | 20.13392 | -155.62784 | 20191 ft | 395 kts | 289° |
| 2026-04-22 19:42 | 20.14242 | -155.65535 | 20655 ft | 397 kts | 289° |
| 2026-04-22 19:42 | 20.15107 | -155.68336 | 21121 ft | 399 kts | 289° |
| 2026-04-22 19:42 | 20.15974 | -155.71149 | 21579 ft | 401 kts | 289° |
| 2026-04-22 19:42 | 20.16847 | -155.73980 | 22022 ft | 405 kts | 288° |
| 2026-04-22 19:43 | 20.18614 | -155.79708 | 22927 ft | 409 kts | 288° |
| 2026-04-22 19:43 | 20.19501 | -155.82587 | 23402 ft | 411 kts | 288° |
| 2026-04-22 19:43 | 20.20493 | -155.85440 | 23799 ft | 413 kts | 294° |
| 2026-04-22 19:44 | 20.21793 | -155.88192 | 24152 ft | 417 kts | 298° |
| 2026-04-22 19:44 | 20.23204 | -155.90898 | 24507 ft | 419 kts | 299° |
| 2026-04-22 19:44 | 20.24640 | -155.93606 | 24842 ft | 422 kts | 299° |
| 2026-04-22 19:44 | 20.26084 | -155.96341 | 25168 ft | 425 kts | 299° |
| 2026-04-22 19:45 | 20.27504 | -155.99069 | 25481 ft | 428 kts | 298° |
| 2026-04-22 19:45 | 20.28935 | -156.01858 | 25830 ft | 430 kts | 298° |
| 2026-04-22 19:45 | 20.30360 | -156.04672 | 26195 ft | 432 kts | 298° |
| 2026-04-22 19:45 | 20.31783 | -156.07502 | 26509 ft | 435 kts | 298° |
| 2026-04-22 19:46 | 20.33213 | -156.10356 | 26803 ft | 438 kts | 298° |
| 2026-04-22 19:46 | 20.34655 | -156.13233 | 27122 ft | 441 kts | 298° |
| 2026-04-22 19:46 | 20.36103 | -156.16120 | 27472 ft | 443 kts | 298° |
| 2026-04-22 19:46 | 20.37560 | -156.19019 | 27797 ft | 445 kts | 298° |
| 2026-04-22 19:47 | 20.39029 | -156.21939 | 27979 ft | 450 kts | 298° |
| 2026-04-22 19:47 | 20.40514 | -156.24891 | 28057 ft | 450 kts | 298° |
| 2026-04-22 19:47 | 20.43413 | -156.30676 | 28111 ft | 437 kts | 298° |
| 2026-04-22 19:48 | 20.46272 | -156.36381 | 28128 ft | 436 kts | 298° |
| 2026-04-22 19:48 | 20.49133 | -156.42076 | 28108 ft | 436 kts | 298° |
| 2026-04-22 19:49 | 20.50564 | -156.44937 | 27951 ft | 437 kts | 298° |
| 2026-04-22 19:49 | 20.51989 | -156.47793 | 27798 ft | 435 kts | 298° |
| 2026-04-22 19:49 | 20.53387 | -156.50598 | 27650 ft | 433 kts | 298° |
| 2026-04-22 19:49 | 20.54803 | -156.53437 | 27500 ft | 432 kts | 298° |
| 2026-04-22 19:50 | 20.56211 | -156.56259 | 27341 ft | 431 kts | 298° |
| 2026-04-22 19:50 | 20.57624 | -156.59090 | 27142 ft | 429 kts | 298° |
| 2026-04-22 19:50 | 20.59028 | -156.61902 | 26950 ft | 427 kts | 298° |
| 2026-04-22 19:50 | 20.60423 | -156.64695 | 26645 ft | 427 kts | 298° |
| 2026-04-22 19:51 | 20.61820 | -156.67492 | 26226 ft | 425 kts | 298° |
| 2026-04-22 19:51 | 20.63204 | -156.70265 | 25746 ft | 420 kts | 298° |
| 2026-04-22 19:51 | 20.64568 | -156.72997 | 25261 ft | 414 kts | 298° |
| 2026-04-22 19:51 | 20.65893 | -156.75655 | 24794 ft | 409 kts | 298° |
| 2026-04-22 19:52 | 20.67229 | -156.78332 | 24267 ft | 407 kts | 298° |
| 2026-04-22 19:52 | 20.68557 | -156.80996 | 23610 ft | 405 kts | 298° |
| 2026-04-22 19:52 | 20.69875 | -156.83651 | 22776 ft | 405 kts | 298° |
| 2026-04-22 19:52 | 20.71193 | -156.86320 | 21921 ft | 406 kts | 298° |
| 2026-04-22 19:53 | 20.72514 | -156.88994 | 21202 ft | 405 kts | 298° |
| 2026-04-22 19:53 | 20.73815 | -156.91621 | 20805 ft | 394 kts | 298° |
| 2026-04-22 19:53 | 20.75088 | -156.94186 | 20401 ft | 387 kts | 298° |
| 2026-04-22 19:53 | 20.76338 | -156.96720 | 19994 ft | 384 kts | 297° |
| 2026-04-22 19:54 | 20.77366 | -156.99346 | 19574 ft | 382 kts | 291° |
| 2026-04-22 19:54 | 20.78231 | -157.02027 | 19168 ft | 380 kts | 290° |
| 2026-04-22 19:54 | 20.79052 | -157.04705 | 18762 ft | 379 kts | 289° |
| 2026-04-22 19:54 | 20.79866 | -157.07370 | 18332 ft | 377 kts | 290° |
| 2026-04-22 19:55 | 20.80689 | -157.10037 | 17862 ft | 380 kts | 290° |
| 2026-04-22 19:55 | 20.81528 | -157.12705 | 17412 ft | 386 kts | 290° |
| 2026-04-22 19:55 | 20.82395 | -157.15435 | 16961 ft | 388 kts | 290° |
| 2026-04-22 19:55 | 20.83269 | -157.18164 | 16493 ft | 387 kts | 290° |
| 2026-04-22 19:56 | 20.84141 | -157.20874 | 16056 ft | 385 kts | 290° |
| 2026-04-22 19:56 | 20.85016 | -157.23572 | 15616 ft | 383 kts | 291° |
| 2026-04-22 19:56 | 20.85889 | -157.26254 | 15182 ft | 382 kts | 291° |
| 2026-04-22 19:56 | 20.86759 | -157.28934 | 14755 ft | 380 kts | 291° |
| 2026-04-22 19:57 | 20.87617 | -157.31593 | 14330 ft | 379 kts | 291° |
| 2026-04-22 19:57 | 20.88476 | -157.34250 | 13915 ft | 377 kts | 291° |
| 2026-04-22 19:57 | 20.89326 | -157.36884 | 13448 ft | 370 kts | 290° |
| 2026-04-22 19:57 | 20.90158 | -157.39464 | 12991 ft | 363 kts | 290° |
| 2026-04-22 19:58 | 20.90975 | -157.41995 | 12541 ft | 356 kts | 290° |
| 2026-04-22 19:58 | 20.91775 | -157.44477 | 12093 ft | 350 kts | 290° |
| 2026-04-22 19:58 | 20.92561 | -157.46922 | 11650 ft | 344 kts | 290° |
| 2026-04-22 19:58 | 20.93330 | -157.49320 | 11231 ft | 338 kts | 289° |
| 2026-04-22 19:59 | 20.94087 | -157.51684 | 10841 ft | 332 kts | 289° |
| 2026-04-22 20:00 | 20.98137 | -157.64382 | 9203 ft | 286 kts | 289° |
| 2026-04-22 20:00 | 20.98776 | -157.66393 | 8780 ft | 284 kts | 289° |
| 2026-04-22 20:01 | 20.99409 | -157.68391 | 8340 ft | 282 kts | 289° |
| 2026-04-22 20:01 | 21.00039 | -157.70379 | 7942 ft | 281 kts | 289° |
| 2026-04-22 20:01 | 21.00664 | -157.72348 | 7529 ft | 279 kts | 289° |
| 2026-04-22 20:01 | 21.01279 | -157.74283 | 7144 ft | 270 kts | 290° |
| 2026-04-22 20:02 | 21.01876 | -157.76163 | 6738 ft | 264 kts | 290° |
| 2026-04-22 20:02 | 21.02455 | -157.77986 | 6324 ft | 259 kts | 290° |
| 2026-04-22 20:02 | 21.03031 | -157.79796 | 5900 ft | 255 kts | 290° |
| 2026-04-22 20:02 | 21.03599 | -157.81588 | 5484 ft | 253 kts | 289° |
| 2026-04-22 20:03 | 21.04138 | -157.83380 | 5052 ft | 252 kts | 289° |
| 2026-04-22 20:03 | 21.04665 | -157.85172 | 4611 ft | 252 kts | 288° |
| 2026-04-22 20:03 | 21.05190 | -157.86965 | 4191 ft | 252 kts | 288° |
| 2026-04-22 20:03 | 21.05710 | -157.88749 | 3805 ft | 251 kts | 288° |
| 2026-04-22 20:04 | 21.06227 | -157.90531 | 3418 ft | 250 kts | 288° |
| 2026-04-22 20:04 | 21.06737 | -157.92296 | 3195 ft | 243 kts | 288° |
| 2026-04-22 20:04 | 21.07219 | -157.93996 | 3071 ft | 235 kts | 288° |
| 2026-04-22 20:04 | 21.07687 | -157.95652 | 2999 ft | 231 kts | 289° |
| 2026-04-22 20:05 | 21.08182 | -157.97299 | 2930 ft | 231 kts | 289° |
| 2026-04-22 20:05 | 21.08639 | -157.98908 | 2960 ft | 226 kts | 287° |
| 2026-04-22 20:05 | 21.08993 | -158.00535 | 2914 ft | 223 kts | 282° |
| 2026-04-22 20:05 | 21.09295 | -158.02142 | 2903 ft | 219 kts | 282° |
| 2026-04-22 20:06 | 21.09622 | -158.03723 | 2896 ft | 214 kts | 286° |
| 2026-04-22 20:06 | 21.10078 | -158.05224 | 2887 ft | 211 kts | 295° |
| 2026-04-22 20:06 | 21.10770 | -158.06609 | 2880 ft | 210 kts | 305° |
| 2026-04-22 20:06 | 21.11609 | -158.07863 | 2957 ft | 205 kts | 308° |
| 2026-04-22 20:07 | 21.12492 | -158.09065 | 2933 ft | 206 kts | 313° |
| 2026-04-22 20:07 | 21.13522 | -158.10094 | 3006 ft | 198 kts | 331° |
| 2026-04-22 20:07 | 21.14772 | -158.10530 | 3056 ft | 184 kts | 2° |
| 2026-04-22 20:07 | 21.15932 | -158.10139 | 2999 ft | 175 kts | 37° |
| 2026-04-22 20:08 | 21.16955 | -158.09403 | 2974 ft | 179 kts | 35° |
| 2026-04-22 20:08 | 21.17982 | -158.08669 | 3010 ft | 180 kts | 35° |
| 2026-04-22 20:08 | 21.19020 | -158.07912 | 3023 ft | 182 kts | 35° |
| 2026-04-22 20:08 | 21.20094 | -158.07159 | 3069 ft | 184 kts | 33° |
| 2026-04-22 20:09 | 21.21197 | -158.06421 | 2987 ft | 192 kts | 33° |
| 2026-04-22 20:09 | 21.22306 | -158.05619 | 2968 ft | 192 kts | 41° |
| 2026-04-22 20:09 | 21.23160 | -158.04552 | 2790 ft | 188 kts | 57° |
| 2026-04-22 20:09 | 21.23865 | -158.03393 | 2685 ft | 183 kts | 58° |
| 2026-04-22 20:10 | 21.24571 | -158.02253 | 2460 ft | 184 kts | 56° |
| 2026-04-22 20:10 | 21.25312 | -158.01184 | 2299 ft | 172 kts | 51° |
| 2026-04-22 20:10 | 21.26077 | -158.00238 | 1964 ft | 168 kts | 49° |
| 2026-04-22 20:10 | 21.26756 | -157.99284 | 1705 ft | 157 kts | 54° |
| 2026-04-22 20:11 | 21.27391 | -157.98380 | 1457 ft | 143 kts | 53° |
| 2026-04-22 20:11 | 21.27988 | -157.97554 | 1127 ft | 137 kts | 53° |
| 2026-04-22 20:11 | 21.28566 | -157.96739 | 946 ft | 137 kts | 53° |
| 2026-04-22 20:11 | 21.29139 | -157.95920 | 797 ft | 139 kts | 54° |
| 2026-04-22 20:12 | 21.29742 | -157.95090 | 620 ft | 143 kts | 53° |
| 2026-04-22 20:12 | 21.30343 | -157.94220 | 428 ft | 146 kts | 59° |
| 2026-04-22 20:12 | 21.30740 | -157.93639 | 348 ft | 145 kts | 53° |
| 2026-04-22 20:12 | 21.31552 | -157.92493 | 35 ft | 144 kts | 56° |
| 2026-04-22 20:13 | 21.32082 | -157.91736 | 16 ft | 94 kts | 52° |
| 2026-04-22 20:13 | 21.32303 | -157.91432 | 12 ft | 27 kts | 38° |
| 2026-04-22 20:13 | 21.32409 | -157.91369 | 13 ft | 5 kts | 17° |
| 2026-04-22 20:13 | 21.32417 | -157.91367 | 14 ft | 1 kts | 16° |
| 2026-04-22 20:14 | 21.32482 | -157.91346 | 15 ft | 12 kts | 16° |
| 2026-04-22 20:14 | 21.32564 | -157.91330 | 16 ft | 12 kts | 9° |
| 2026-04-22 20:14 | 21.32645 | -157.91317 | 17 ft | 11 kts | 6° |
| 2026-04-22 20:14 | 21.32720 | -157.91306 | 17 ft | 10 kts | 12° |
| 2026-04-22 20:15 | 21.32755 | -157.91310 | 18 ft | 1 kts | 312° |
| 2026-04-22 20:15 | 21.32759 | -157.91319 | 18 ft | 2 kts | 300° |
| 2026-04-22 20:15 | 21.32768 | -157.91342 | 18 ft | 4 kts | 287° |
| 2026-04-22 20:15 | 21.32773 | -157.91381 | 17 ft | 6 kts | 272° |
| 2026-04-22 20:16 | 21.32774 | -157.91431 | 17 ft | 8 kts | 271° |
| 2026-04-22 20:16 | 21.32775 | -157.91491 | 18 ft | 8 kts | 271° |
| 2026-04-22 20:16 | 21.32776 | -157.91550 | 19 ft | 8 kts | 270° |
| 2026-04-22 20:16 | 21.32776 | -157.91607 | 19 ft | 8 kts | 270° |
| 2026-04-22 20:17 | 21.32775 | -157.91665 | 20 ft | 8 kts | 269° |
| 2026-04-22 20:17 | 21.32774 | -157.91743 | 19 ft | 15 kts | 269° |
| 2026-04-22 20:17 | 21.32772 | -157.91891 | 17 ft | 25 kts | 270° |
| 2026-04-22 20:17 | 21.32773 | -157.92094 | 19 ft | 27 kts | 271° |
| 2026-04-22 20:18 | 21.32773 | -157.92297 | 19 ft | 27 kts | 269° |
| 2026-04-22 20:18 | 21.32774 | -157.92501 | 18 ft | 26 kts | 272° |
| 2026-04-22 20:18 | 21.32772 | -157.92692 | 21 ft | 22 kts | 264° |
| 2026-04-22 20:18 | 21.32804 | -157.92798 | 19 ft | 12 kts | 337° |
| 2026-04-22 20:19 | 21.32887 | -157.92798 | 19 ft | 12 kts | 21° |
| 2026-04-22 20:19 | 21.32953 | -157.92740 | 18 ft | 13 kts | 44° |
| 2026-04-22 20:19 | 21.33024 | -157.92662 | 17 ft | 15 kts | 43° |
| 2026-04-22 20:19 | 21.33112 | -157.92594 | 16 ft | 16 kts | 27° |
| 2026-04-22 20:20 | 21.33188 | -157.92524 | 17 ft | 12 kts | 78° |
| 2026-04-22 20:20 | 21.33188 | -157.92509 | 17 ft | 0 kts | 89° |